Time;durP1;ratioP1;P1;durP2;ratioP2;P2;SDS_P1;SDS_P2;PMS_P1;PMS_P2;Temp;Humidity;BMP_temperature;BMP_pressure;BME280_temperature;BME280_humidity;BME280_pressure;Samples;Min_cycle;Max_cycle;Signal;HPM_P1;HPM_P2
2022/02/19 00:00:40;;;;;;;12.18;1.50;;;;;;;-0.04;64.48;98862.91;4985061;28;20033;-77
2022/02/19 00:03:05;;;;;;;24.35;2.30;;;;;;;0.18;63.91;98870.84;4968885;28;20037;-78
2022/02/19 00:05:31;;;;;;;19.42;2.15;;;;;;;-0.13;64.58;98882.81;4983820;28;20038;-78
2022/02/19 00:07:57;;;;;;;10.93;1.92;;;;;;;0.07;64.17;98868.59;5012027;28;20095;-79
2022/02/19 00:10:23;;;;;;;18.88;1.45;;;;;;;0.02;64.50;98880.72;4994943;28;20033;-80
2022/02/19 00:12:48;;;;;;;21.50;1.88;;;;;;;0.05;63.17;98872.91;5018870;28;20050;-81
2022/02/19 00:15:14;;;;;;;9.23;1.02;;;;;;;-0.06;64.14;98892.94;4992122;28;20132;-79
2022/02/19 00:17:40;;;;;;;13.65;1.88;;;;;;;0.41;63.20;98898.44;4991442;28;20034;-85
2022/02/19 00:20:07;;;;;;;21.00;2.40;;;;;;;-0.22;65.26;98908.75;4980908;28;20030;-80
2022/02/19 00:22:35;;;;;;;15.70;2.17;;;;;;;-0.03;64.46;98913.41;4993846;28;20037;-82
2022/02/19 00:25:02;;;;;;;28.05;1.58;;;;;;;0.12;64.73;98914.69;4994659;28;20037;-81
2022/02/19 00:27:28;;;;;;;9.85;0.93;;;;;;;-0.02;64.70;98931.31;4986131;28;20052;-83
2022/02/19 00:29:53;;;;;;;4.80;0.82;;;;;;;0.30;64.35;98939.03;4981200;28;20033;-80
2022/02/19 00:32:20;;;;;;;15.18;1.33;;;;;;;-0.07;64.94;98945.19;4981683;28;20400;-81
2022/02/19 00:34:45;;;;;;;20.88;2.53;;;;;;;-0.41;65.90;98969.19;4991578;28;20132;-82
2022/02/19 00:37:13;;;;;;;13.75;1.33;;;;;;;0.05;65.03;98988.50;4976961;28;20046;-81
2022/02/19 00:39:38;;;;;;;13.95;1.05;;;;;;;0.07;65.41;99012.44;4986481;28;20037;-81
2022/02/19 00:42:05;;;;;;;15.98;1.33;;;;;;;0.02;65.77;99011.72;4982766;28;20049;-83
2022/02/19 00:44:32;;;;;;;16.60;2.08;;;;;;;0.26;64.90;99002.53;4990345;28;20053;-84
2022/02/19 00:46:59;;;;;;;19.15;1.63;;;;;;;0.52;63.83;99024.91;4990133;28;20072;-83
2022/02/19 00:49:25;;;;;;;20.05;2.25;;;;;;;0.50;64.53;99067.81;4986161;28;20026;-83
2022/02/19 00:51:51;;;;;;;12.27;2.15;;;;;;;0.58;63.81;99089.03;4983546;28;20037;-80
2022/02/19 00:54:17;;;;;;;6.53;0.55;;;;;;;0.52;62.68;99081.47;4986008;28;20033;-83
2022/02/19 00:56:43;;;;;;;18.85;1.52;;;;;;;-0.40;63.75;99078.66;5005075;28;20034;-82
2022/02/19 00:59:09;;;;;;;9.25;1.13;;;;;;;-0.09;64.16;99122.44;4970743;28;20025;-83
2022/02/19 01:01:37;;;;;;;8.07;0.80;;;;;;;0.07;63.15;99107.47;4988112;28;20485;-84
2022/02/19 01:04:15;;;;;;;12.38;1.58;;;;;;;0.36;62.90;99162.44;4985028;28;20456;-81
2022/02/19 01:06:40;;;;;;;18.77;2.00;;;;;;;0.42;62.92;99159.72;5000333;28;20332;-83
2022/02/19 01:09:06;;;;;;;14.20;1.08;;;;;;;0.62;62.44;99179.78;4986450;28;20041;-85
2022/02/19 01:11:32;;;;;;;19.13;1.02;;;;;;;0.53;62.55;99182.59;5004828;28;20034;-80
2022/02/19 01:13:57;;;;;;;20.50;1.60;;;;;;;0.95;61.36;99202.91;4979328;28;20041;-82
2022/02/19 01:16:23;;;;;;;7.32;0.75;;;;;;;0.40;60.67;99177.75;4994621;28;20057;-80
2022/02/19 01:18:49;;;;;;;17.92;1.02;;;;;;;1.15;59.51;99205.78;5000907;28;20292;-83
2022/02/19 01:21:17;;;;;;;19.75;1.77;;;;;;;1.50;59.05;99212.53;4982080;28;20567;-80
2022/02/19 01:23:42;;;;;;;8.20;0.98;;;;;;;1.00;60.08;99237.91;4980601;28;20088;-82
2022/02/19 01:26:08;;;;;;;14.90;0.70;;;;;;;1.06;59.80;99237.75;4984018;28;20026;-78
2022/02/19 01:28:34;;;;;;;10.98;1.23;;;;;;;1.39;58.80;99266.03;4998239;28;20034;-81
2022/02/19 01:31:01;;;;;;;24.15;2.13;;;;;;;0.97;60.14;99281.75;4976546;28;20022;-81
2022/02/19 01:33:26;;;;;;;9.10;0.95;;;;;;;0.75;60.16;99298.56;4985522;28;20499;-80
2022/02/19 01:35:53;;;;;;;5.72;0.30;;;;;;;0.73;59.25;99295.22;4993380;28;20036;-80
2022/02/19 01:38:19;;;;;;;11.77;0.57;;;;;;;0.64;59.58;99315.13;4981143;28;20497;-82
2022/02/19 01:40:48;;;;;;;3.47;0.20;;;;;;;0.86;58.34;99323.19;5011740;28;20058;-79
2022/02/19 01:43:13;;;;;;;9.55;0.55;;;;;;;1.30;57.24;99313.47;4982578;28;20058;-79
2022/02/19 01:45:39;;;;;;;12.35;0.65;;;;;;;0.79;58.60;99329.34;4988405;28;20052;-79
2022/02/19 01:48:06;;;;;;;6.28;1.00;;;;;;;0.82;58.71;99342.13;4993950;28;20037;-82
2022/02/19 01:50:32;;;;;;;12.57;1.15;;;;;;;1.06;58.30;99343.25;4991890;28;20053;-79
2022/02/19 01:52:59;;;;;;;11.43;1.30;;;;;;;1.18;58.14;99354.13;4981437;28;20037;-79
2022/02/19 01:55:39;;;;;;;7.70;0.55;;;;;;;1.40;57.71;99360.44;4998893;28;20021;-78
2022/02/19 01:58:12;;;;;;;9.55;1.48;;;;;;;1.32;57.56;99364.91;5000381;28;20056;-77
2022/02/19 02:00:56;;;;;;;14.35;1.67;;;;;;;1.37;57.34;99370.75;5018221;28;20057;-79
2022/02/19 02:03:41;;;;;;;10.15;1.05;;;;;;;0.90;58.66;99393.38;5002736;28;20044;-79
2022/02/19 02:06:23;;;;;;;18.25;1.38;;;;;;;1.65;56.43;99394.09;4991540;28;20060;-78
2022/02/19 02:08:50;;;;;;;13.45;1.33;;;;;;;1.15;57.82;99411.66;5018263;28;20090;-81
2022/02/19 02:11:16;;;;;;;13.95;2.20;;;;;;;0.92;58.49;99403.66;5001639;28;20022;-78
2022/02/19 02:13:58;;;;;;;8.40;1.02;;;;;;;1.48;56.94;99429.75;5004216;28;20128;-79
2022/02/19 02:16:36;;;;;;;13.25;1.48;;;;;;;1.50;56.64;99410.78;5002829;28;20043;-80
2022/02/19 02:19:08;;;;;;;11.23;0.98;;;;;;;1.54;56.35;99444.22;4999040;28;20037;-81
2022/02/19 02:21:35;;;;;;;11.32;2.17;;;;;;;1.69;56.06;99441.25;5014588;28;20124;-79
2022/02/19 02:24:01;;;;;;;13.48;0.77;;;;;;;1.27;56.65;99451.69;4997436;28;20042;-81
2022/02/19 02:26:27;;;;;;;12.82;2.55;;;;;;;1.05;57.57;99472.78;5000711;28;20269;-81
2022/02/19 02:28:53;;;;;;;15.30;1.63;;;;;;;0.92;57.66;99455.94;4999170;28;20041;-80
2022/02/19 02:31:19;;;;;;;19.17;2.25;;;;;;;0.96;57.00;99467.84;4992139;28;20044;-81
2022/02/19 02:33:47;;;;;;;6.78;0.95;;;;;;;1.44;56.13;99470.19;4998016;28;20037;-80
2022/02/19 02:36:16;;;;;;;6.28;1.00;;;;;;;1.57;55.27;99480.16;4999926;28;20010;-80
2022/02/19 02:38:46;;;;;;;;;;;;;;;1.41;55.34;99480.53;5022681;28;20101;-76
2022/02/19 02:41:15;;;;;;;4.50;0.90;;;;;;;1.13;55.95;99489.78;5002878;28;19917;-78
2022/02/19 02:43:41;;;;;;;9.00;0.70;;;;;;;1.08;55.59;99513.91;5014774;28;20169;-82
2022/02/19 02:46:07;;;;;;;11.02;0.65;;;;;;;1.44;54.87;99533.69;4987843;28;20022;-80
2022/02/19 02:48:33;;;;;;;14.23;0.75;;;;;;;1.52;54.89;99548.09;5000367;28;20085;-82
2022/02/19 02:51:01;;;;;;;15.57;0.85;;;;;;;1.41;55.15;99557.78;4988784;28;20025;-81
2022/02/19 02:53:27;;;;;;;5.90;0.60;;;;;;;1.70;54.64;99538.22;5001161;28;20048;-81
2022/02/19 02:55:53;;;;;;;12.10;1.02;;;;;;;1.86;54.34;99564.44;4981872;28;20080;-80
2022/02/19 02:58:19;;;;;;;3.22;0.80;;;;;;;2.14;53.88;99578.34;4978700;28;20504;-82
2022/02/19 03:00:45;;;;;;;0.57;0.10;;;;;;;0.77;55.56;99656.91;4984994;28;20037;-81
2022/02/19 03:03:11;;;;;;;2.42;0.10;;;;;;;-0.23;57.09;99645.75;4944850;28;20480;-80
2022/02/19 03:05:37;;;;;;;0.35;0.10;;;;;;;-0.91;58.50;99626.13;4996356;28;20112;-81
2022/02/19 03:08:04;;;;;;;1.23;0.40;;;;;;;-0.65;58.54;99643.78;4994666;28;20428;-80
2022/02/19 03:10:30;;;;;;;3.42;0.13;;;;;;;-0.86;58.52;99649.16;4997368;28;20018;-81
2022/02/19 03:12:56;;;;;;;1.27;0.10;;;;;;;-0.47;58.86;99673.47;4997205;28;20042;-81
2022/02/19 03:15:24;;;;;;;5.32;0.65;;;;;;;-0.25;58.09;99656.03;4989619;28;20344;-80
2022/02/19 03:17:50;;;;;;;2.78;0.50;;;;;;;-0.49;58.62;99688.03;4981353;28;20146;-81
2022/02/19 03:20:19;;;;;;;5.28;0.28;;;;;;;-0.31;57.70;99714.34;4984919;28;20609;-81
2022/02/19 03:22:46;;;;;;;4.65;0.20;;;;;;;-0.75;58.65;99737.13;4984670;28;20043;-82
2022/02/19 03:25:15;;;;;;;6.85;1.20;;;;;;;-0.32;57.91;99717.78;5008001;28;20030;-80
2022/02/19 03:27:42;;;;;;;1.90;0.43;;;;;;;-0.73;59.04;99699.47;4977084;28;20038;-80
2022/02/19 03:30:13;;;;;;;0.00;0.00;;;;;;;-0.04;57.47;99715.66;4986173;28;20332;-80
2022/02/19 03:32:40;;;;;;;0.00;0.00;;;;;;;0.15;57.01;99713.69;4990661;28;20461;-81
2022/02/19 03:35:11;;;;;;;0.30;0.10;;;;;;;0.18;56.83;99739.31;4982844;28;20492;-81
2022/02/19 03:37:40;;;;;;;1.55;0.03;;;;;;;-0.21;58.53;99747.59;4965696;28;20034;-80
2022/02/19 03:40:14;;;;;;;2.08;0.32;;;;;;;-0.20;58.96;99762.13;4965100;28;20037;-81
2022/02/19 03:42:42;;;;;;;12.63;0.38;;;;;;;0.10;58.80;99772.84;4979549;28;20038;-81
2022/02/19 03:45:11;;;;;;;4.20;0.52;;;;;;;-0.09;60.79;99789.38;4988405;28;20039;-79
2022/02/19 03:47:41;;;;;;;12.63;0.70;;;;;;;0.38;59.74;99793.00;4989681;28;20444;-80
2022/02/19 03:50:09;;;;;;;4.40;0.68;;;;;;;0.13;60.79;99792.50;5005509;28;20034;-82
2022/02/19 03:52:38;;;;;;;8.23;1.08;;;;;;;0.05;61.32;99780.63;4962290;28;20092;-81
2022/02/19 03:55:08;;;;;;;4.70;0.30;;;;;;;0.23;60.66;99804.34;5003550;28;20025;-78
2022/02/19 03:57:34;;;;;;;4.60;0.30;;;;;;;0.09;60.88;99801.97;4962850;28;20125;-79
2022/02/19 04:00:01;;;;;;;2.28;0.75;;;;;;;0.05;61.12;99814.03;4963735;28;20368;-80
2022/02/19 04:02:26;;;;;;;7.65;0.22;;;;;;;0.27;60.03;99818.84;4993681;28;20069;-80
2022/02/19 04:04:53;;;;;;;8.93;0.63;;;;;;;0.24;60.66;99824.06;4974720;28;20125;-80
2022/02/19 04:07:21;;;;;;;6.60;0.77;;;;;;;0.09;61.49;99832.81;4960291;28;20080;-81
2022/02/19 04:09:55;;;;;;;4.35;0.10;;;;;;;0.26;61.33;99848.00;4997071;28;20034;-81
2022/02/19 04:12:22;;;;;;;11.65;0.85;;;;;;;0.07;60.81;99840.53;4977600;28;20061;-80
2022/02/19 04:14:52;;;;;;;8.88;0.60;;;;;;;0.15;60.97;99855.00;4988125;28;20647;-78
2022/02/19 04:17:17;;;;;;;3.78;0.70;;;;;;;0.04;60.95;99871.41;4987639;28;20045;-81
2022/02/19 04:19:43;;;;;;;6.40;0.50;;;;;;;0.44;59.37;99876.03;4993199;28;20026;-84
2022/02/19 04:22:10;;;;;;;13.40;0.80;;;;;;;-0.23;61.55;99872.59;4970326;28;20041;-82
2022/02/19 04:24:37;;;;;;;5.22;0.20;;;;;;;0.27;60.15;99878.81;4991792;28;20602;-78
2022/02/19 04:27:09;;;;;;;15.32;1.20;;;;;;;0.31;59.58;99876.22;5000939;28;20045;-79
2022/02/19 04:29:36;;;;;;;4.63;0.22;;;;;;;-0.21;61.36;99899.13;5005749;28;20032;-80
2022/02/19 04:32:04;;;;;;;4.63;0.20;;;;;;;0.31;60.09;99904.50;4996767;28;20041;-78
2022/02/19 04:34:37;;;;;;;8.23;0.95;;;;;;;0.43;59.65;99899.16;4991231;28;20523;-82
2022/02/19 04:37:03;;;;;;;4.95;0.45;;;;;;;0.55;59.14;99908.47;4999735;28;20096;-82
2022/02/19 04:39:34;;;;;;;6.82;0.25;;;;;;;0.59;58.93;99916.09;4980582;28;20484;-81
2022/02/19 04:42:00;;;;;;;8.60;0.70;;;;;;;0.25;59.42;99926.81;4976131;28;20037;-81
2022/02/19 04:44:26;;;;;;;3.85;0.38;;;;;;;0.62;58.00;99936.63;4983141;28;20036;-82
2022/02/19 04:46:54;;;;;;;8.27;0.30;;;;;;;0.12;59.05;99932.97;4980927;28;20095;-82
2022/02/19 04:49:20;;;;;;;4.47;0.15;;;;;;;-0.04;59.06;99928.88;5000557;28;20050;-82
2022/02/19 04:51:46;;;;;;;6.32;0.25;;;;;;;0.21;58.48;99950.00;4989859;28;20069;-83
2022/02/19 04:54:12;;;;;;;3.53;0.70;;;;;;;0.41;58.01;99972.91;4977657;28;20061;-82
2022/02/19 04:56:39;;;;;;;10.45;0.50;;;;;;;0.27;58.44;99971.34;4996833;28;20155;-79
2022/02/19 04:59:07;;;;;;;1.27;0.00;;;;;;;0.01;58.73;99991.34;4981035;28;20056;-83
2022/02/19 05:01:39;;;;;;;0.20;0.00;;;;;;;0.32;57.76;99994.41;4979167;28;20041;-81
2022/02/19 05:04:13;;;;;;;2.33;0.03;;;;;;;0.78;56.69;100003.28;5003727;28;20109;-82
2022/02/19 05:07:01;;;;;;;2.60;0.52;;;;;;;0.64;56.97;100013.75;5002510;28;20036;-80
2022/02/19 05:09:27;;;;;;;1.38;0.00;;;;;;;0.16;58.72;100019.44;5004168;28;20548;-79
2022/02/19 05:12:05;;;;;;;2.20;0.20;;;;;;;0.46;57.50;100020.84;5014407;28;20034;-80
2022/02/19 05:14:34;;;;;;;4.90;0.13;;;;;;;0.20;57.87;100018.53;4999735;28;20120;-80
2022/02/19 05:17:07;;;;;;;3.83;0.10;;;;;;;0.28;57.78;100019.31;4998023;28;20034;-83
2022/02/19 05:19:42;;;;;;;1.25;0.17;;;;;;;-0.27;59.08;100030.16;4993201;28;20042;-82
2022/02/19 05:22:08;;;;;;;1.55;0.00;;;;;;;0.46;56.73;100038.84;5002725;28;20057;-79
2022/02/19 05:24:37;;;;;;;4.43;0.15;;;;;;;-0.26;58.36;100037.00;5003591;28;20032;-81
2022/02/19 05:27:12;;;;;;;1.42;0.10;;;;;;;0.47;56.48;100047.38;4984375;28;20494;-78
2022/02/19 05:29:40;;;;;;;4.03;0.10;;;;;;;0.52;56.15;100055.88;5003822;28;20030;-80
2022/02/19 05:32:10;;;;;;;3.30;0.30;;;;;;;0.52;55.70;100047.31;5002582;28;20042;-79
2022/02/19 05:34:42;;;;;;;;;;;;;;;0.14;56.45;100062.28;4984833;28;20030;-80
2022/02/19 05:37:09;;;;;;;7.07;0.15;;;;;;;0.84;54.92;100075.25;5002331;28;20131;-80
2022/02/19 05:39:43;;;;;;;6.13;0.40;;;;;;;0.70;55.27;100093.41;5001392;28;20058;-78
2022/02/19 05:42:12;;;;;;;4.63;0.30;;;;;;;0.61;55.44;100101.22;4993577;28;20041;-79
2022/02/19 05:44:39;;;;;;;1.42;0.38;;;;;;;0.78;54.93;100101.03;4999821;28;20044;-78
2022/02/19 05:47:07;;;;;;;2.88;0.13;;;;;;;0.59;56.11;100110.66;4985941;28;20098;-79
2022/02/19 05:49:37;;;;;;;12.38;0.45;;;;;;;0.97;55.21;100117.97;5003103;28;20024;-78
2022/02/19 05:52:09;;;;;;;3.72;0.20;;;;;;;0.88;55.60;100118.06;4987800;28;20056;-79
2022/02/19 05:54:38;;;;;;;2.15;0.10;;;;;;;0.44;56.23;100129.72;4998698;28;20034;-78
2022/02/19 05:57:13;;;;;;;4.30;0.13;;;;;;;0.27;56.87;100128.13;4985330;28;20058;-82
2022/02/19 05:59:39;;;;;;;2.70;0.60;;;;;;;0.68;55.86;100119.16;4988126;28;20040;-79
2022/02/19 06:02:08;;;;;;;1.13;0.10;;;;;;;0.68;55.59;100142.31;4999346;28;20037;-81
2022/02/19 06:04:33;;;;;;;4.97;0.32;;;;;;;0.24;56.30;100146.16;5009152;28;20034;-82
2022/02/19 06:06:59;;;;;;;2.10;0.10;;;;;;;0.52;55.05;100151.03;4941767;28;20517;-82
2022/02/19 06:09:28;;;;;;;0.75;0.00;;;;;;;0.62;54.80;100162.94;4996334;28;20036;-79
2022/02/19 06:11:56;;;;;;;0.52;0.00;;;;;;;0.73;54.43;100174.84;5021149;28;20016;-79
2022/02/19 06:14:41;;;;;;;5.03;0.15;;;;;;;0.28;55.68;100178.69;5011274;28;20254;-79
2022/02/19 06:17:09;;;;;;;3.50;0.10;;;;;;;0.01;56.48;100189.16;4972252;28;20034;-80
2022/02/19 06:19:34;;;;;;;2.33;0.38;;;;;;;0.42;55.60;100198.28;4999104;28;20070;-81
2022/02/19 06:22:00;;;;;;;4.22;0.10;;;;;;;0.45;55.46;100199.09;4980040;28;20039;-81
2022/02/19 06:24:31;;;;;;;1.35;0.00;;;;;;;0.78;54.90;100201.38;4988580;28;20056;-77
2022/02/19 06:26:57;;;;;;;1.67;0.10;;;;;;;0.49;55.63;100212.78;4988399;28;20029;-85
2022/02/19 06:29:43;;;;;;;2.33;0.10;;;;;;;0.69;55.04;100212.59;5013961;28;20046;-77
2022/02/19 06:32:11;;;;;;;3.35;0.17;;;;;;;0.13;57.17;100219.94;5000719;28;20040;-78
2022/02/19 06:34:41;;;;;;;3.40;0.20;;;;;;;0.25;56.81;100234.41;5010592;28;20396;-80
2022/02/19 06:37:12;;;;;;;1.23;0.10;;;;;;;0.45;55.89;100241.94;4999278;28;20054;-79
2022/02/19 06:39:38;;;;;;;0.73;0.45;;;;;;;0.16;57.04;100244.75;5018777;28;20463;-80
2022/02/19 06:42:05;;;;;;;2.28;0.10;;;;;;;0.41;57.22;100263.41;5002158;28;20069;-79
2022/02/19 06:44:49;;;;;;;1.30;0.20;;;;;;;0.35;57.26;100266.06;5002234;28;20051;-80
2022/02/19 06:47:15;;;;;;;0.55;0.13;;;;;;;0.02;59.62;100273.13;4998136;28;20042;-80
2022/02/19 06:49:41;;;;;;;3.13;0.20;;;;;;;-0.27;60.85;100281.81;5003017;28;20031;-81
2022/02/19 06:52:07;;;;;;;4.20;0.40;;;;;;;-0.03;60.83;100285.13;5007713;28;20496;-81
2022/02/19 06:54:33;;;;;;;3.63;0.20;;;;;;;-0.07;60.09;100294.56;5004472;28;20032;-81
2022/02/19 06:56:59;;;;;;;2.00;0.28;;;;;;;0.35;60.02;100302.88;4979585;28;20034;-82
2022/02/19 06:59:26;;;;;;;3.53;0.10;;;;;;;0.49;60.25;100308.78;5012955;28;20026;-80
2022/02/19 07:01:51;;;;;;;3.55;0.15;;;;;;;0.45;60.12;100306.22;4985638;28;20036;-81
2022/02/19 07:04:19;;;;;;;2.38;0.17;;;;;;;0.90;58.84;100311.88;4986594;28;20138;-83
2022/02/19 07:06:53;;;;;;;3.72;0.68;;;;;;;0.68;59.74;100317.22;5005570;28;20052;-81
2022/02/19 07:09:19;;;;;;;4.78;0.40;;;;;;;0.15;62.26;100341.56;5021629;28;20460;-78
2022/02/19 07:11:46;;;;;;;3.88;0.00;;;;;;;0.89;60.16;100330.75;4975123;28;20029;-81
2022/02/19 07:14:12;;;;;;;5.10;0.38;;;;;;;0.80;60.17;100346.28;4976288;28;20023;-81
2022/02/19 07:16:38;;;;;;;5.68;0.30;;;;;;;0.44;60.89;100343.09;4979758;28;20129;-80
2022/02/19 07:19:03;;;;;;;2.95;0.60;;;;;;;0.07;61.63;100349.28;4981078;28;20116;-80
2022/02/19 07:21:29;;;;;;;2.03;0.17;;;;;;;0.25;60.48;100360.34;4982835;28;20129;-81
2022/02/19 07:23:56;;;;;;;5.15;0.32;;;;;;;0.48;59.26;100362.81;4991065;28;20053;-78
2022/02/19 07:26:26;;;;;;;6.15;0.60;;;;;;;0.02;60.78;100381.03;4982692;28;20037;-81
2022/02/19 07:28:53;;;;;;;3.50;0.95;;;;;;;-0.20;61.43;100387.97;4973582;28;20046;-81
2022/02/19 07:31:22;;;;;;;4.65;0.30;;;;;;;0.34;59.82;100403.16;4980776;28;20081;-81
2022/02/19 07:33:48;;;;;;;2.67;0.30;;;;;;;-0.44;62.80;100412.81;4991032;28;20584;-80
2022/02/19 07:36:21;;;;;;;2.33;0.10;;;;;;;-0.14;60.84;100429.88;5001861;28;20052;-80
2022/02/19 07:38:47;;;;;;;10.20;0.60;;;;;;;-0.28;60.85;100433.34;4982602;28;20057;-80
2022/02/19 07:41:13;;;;;;;3.03;1.17;;;;;;;-0.45;61.18;100420.56;4988759;28;20027;-80
2022/02/19 07:43:57;;;;;;;0.30;0.05;;;;;;;-0.20;60.60;100408.50;4984097;28;20165;-81
2022/02/19 07:46:58;;;;;;;8.77;0.22;;;;;;;-0.09;60.11;100418.75;4937358;29;20032;-83
2022/02/19 07:58:28;;;;;;;5.90;0.20;;;;;;;0.94;57.31;100431.06;4985422;28;20038;-83
2022/02/19 08:01:05;;;;;;;11.98;1.13;;;;;;;0.99;57.80;100445.63;5003593;28;20037;-82
2022/02/19 08:03:40;;;;;;;8.27;0.45;;;;;;;0.79;58.16;100463.78;4984025;28;20034;-81
2022/02/19 08:06:06;;;;;;;7.88;0.40;;;;;;;0.98;58.00;100464.50;4964936;28;20103;-79
2022/02/19 08:08:35;;;;;;;10.52;0.65;;;;;;;0.64;59.01;100464.72;4980493;28;20038;-81
2022/02/19 08:11:05;;;;;;;13.75;0.82;;;;;;;0.56;59.56;100471.59;4991910;28;20065;-82
2022/02/19 08:13:34;;;;;;;14.88;0.77;;;;;;;0.72;58.94;100474.09;5022153;28;20029;-78
2022/02/19 08:15:59;;;;;;;12.48;1.23;;;;;;;0.49;59.02;100472.50;4994048;28;20408;-82
2022/02/19 08:18:25;;;;;;;8.48;0.82;;;;;;;0.50;59.78;100476.75;5017176;28;20063;-82
2022/02/19 08:20:52;;;;;;;11.02;1.70;;;;;;;-0.14;61.06;100483.84;5002964;28;20033;-80
2022/02/19 08:23:20;;;;;;;7.82;1.38;;;;;;;0.34;60.12;100485.41;5010226;28;20092;-80
2022/02/19 08:25:46;;;;;;;11.35;0.82;;;;;;;0.68;59.23;100486.97;4991785;28;20033;-80
2022/02/19 08:28:12;;;;;;;11.25;1.08;;;;;;;0.69;59.68;100498.13;5002676;28;20069;-80
2022/02/19 08:30:41;;;;;;;5.43;0.73;;;;;;;0.04;61.32;100507.78;4998844;28;20558;-82
2022/02/19 08:33:08;;;;;;;10.80;1.00;;;;;;;0.41;61.12;100517.94;4996260;28;20391;-82
2022/02/19 08:35:35;;;;;;;7.25;0.65;;;;;;;0.59;60.19;100543.63;5004114;28;20044;-82
2022/02/19 08:38:01;;;;;;;4.95;0.70;;;;;;;1.17;59.00;100536.44;4996287;28;20040;-82
2022/02/19 08:40:27;;;;;;;4.78;0.60;;;;;;;0.48;60.37;100546.22;5006069;28;20413;-79
2022/02/19 08:42:52;;;;;;;7.50;0.52;;;;;;;1.02;58.73;100542.56;4990596;28;20111;-81
2022/02/19 08:45:18;;;;;;;15.10;2.65;;;;;;;1.04;58.97;100554.53;4985986;28;20030;-82
2022/02/19 08:47:46;;;;;;;4.13;1.13;;;;;;;0.72;58.86;100543.53;4987660;28;20060;-80
2022/02/19 08:50:12;;;;;;;8.48;0.88;;;;;;;0.92;59.01;100566.63;4996494;28;20054;-79
2022/02/19 08:52:46;;;;;;;7.28;1.45;;;;;;;1.32;57.23;100551.78;4973442;28;20037;-77
2022/02/19 08:55:13;;;;;;;4.80;0.55;;;;;;;1.08;57.62;100553.66;5010962;28;20033;-84
2022/02/19 08:57:39;;;;;;;15.38;1.15;;;;;;;0.88;57.54;100561.50;4981367;28;20054;-79
2022/02/19 09:00:08;;;;;;;5.82;0.38;;;;;;;1.04;56.82;100561.41;5012621;28;20037;-83
2022/02/19 09:02:33;;;;;;;1.38;0.65;;;;;;;1.48;55.61;100563.75;4992563;28;20045;-76
2022/02/19 09:04:59;;;;;;;6.60;0.60;;;;;;;1.35;55.66;100572.38;5011864;28;20042;-82
2022/02/19 09:07:26;;;;;;;7.72;1.08;;;;;;;1.19;55.87;100575.91;4990909;28;20046;-81
2022/02/19 09:09:52;;;;;;;6.50;0.63;;;;;;;0.83;57.39;100580.38;4998674;28;20040;-80
2022/02/19 09:12:18;;;;;;;9.18;1.23;;;;;;;1.48;55.80;100579.19;4957330;28;20077;-78
2022/02/19 09:14:43;;;;;;;13.93;2.28;;;;;;;1.56;55.09;100573.13;5013369;28;20038;-84
2022/02/19 09:17:09;;;;;;;6.25;0.50;;;;;;;1.91;54.44;100580.59;5006024;28;20068;-79
2022/02/19 09:19:34;;;;;;;9.63;0.80;;;;;;;0.75;57.14;100600.13;5009860;28;20022;-81
2022/02/19 09:22:01;;;;;;;11.85;1.27;;;;;;;0.28;58.55;100619.97;4968755;28;20132;-86
2022/02/19 09:24:28;;;;;;;11.15;1.75;;;;;;;0.73;58.46;100625.88;4976833;28;20041;-80
2022/02/19 09:26:54;;;;;;;7.18;0.35;;;;;;;0.57;58.70;100626.75;5001340;28;20415;-84
2022/02/19 09:29:20;;;;;;;12.30;0.35;;;;;;;0.20;60.03;100645.69;4987682;28;20029;-83
2022/02/19 09:31:45;;;;;;;6.18;1.10;;;;;;;0.03;60.46;100655.97;4986643;28;20038;-78
2022/02/19 09:34:11;;;;;;;5.63;0.55;;;;;;;0.58;59.56;100660.19;4989442;28;20435;-81
2022/02/19 09:36:38;;;;;;;6.95;1.20;;;;;;;0.13;60.60;100643.97;4998169;28;20169;-81
2022/02/19 09:39:04;;;;;;;7.30;0.50;;;;;;;0.29;59.89;100657.66;4984306;28;20037;-80
2022/02/19 09:41:30;;;;;;;4.95;0.77;;;;;;;0.24;60.23;100664.53;4995961;28;20032;-79
2022/02/19 09:44:05;;;;;;;6.25;1.02;;;;;;;0.89;58.05;100660.13;4974655;28;20484;-81
2022/02/19 09:46:41;;;;;;;8.93;1.13;;;;;;;0.13;59.60;100661.97;4989631;28;20034;-80
2022/02/19 09:49:13;;;;;;;4.13;0.57;;;;;;;0.47;58.71;100656.78;4969518;28;20088;-80
2022/02/19 09:51:59;;;;;;;;;;;;;;;;;;;;;
2022/02/19 09:54:28;;;;;;;8.38;0.70;;;;;;;1.84;56.84;100659.66;4995380;28;20037;-80
2022/02/19 09:56:58;;;;;;;13.15;1.05;;;;;;;3.40;53.64;100653.75;4954063;28;20044;-86
2022/02/19 10:00:03;;;;;;;9.23;1.17;;;;;;;2.73;53.21;100635.66;4977823;28;20038;-82
2022/02/19 10:03:07;;;;;;;12.98;1.33;;;;;;;2.26;55.00;100652.44;4990296;28;20058;-84
2022/02/19 10:06:05;;;;;;;9.63;0.88;;;;;;;2.19;54.51;100665.41;4969732;28;20489;-83
2022/02/19 10:08:47;;;;;;;11.27;1.15;;;;;;;1.69;56.02;100680.38;4923248;28;20261;-85
2022/02/19 10:11:33;;;;;;;8.65;0.63;;;;;;;1.34;57.05;100668.50;4964898;28;20034;-82
2022/02/19 10:14:19;;;;;;;13.50;1.40;;;;;;;2.55;54.30;100674.53;4948703;28;20051;-81
2022/02/19 10:17:27;;;;;;;10.98;0.82;;;;;;;2.57;54.17;100683.09;4941746;28;20054;-78
2022/02/19 10:20:33;;;;;;;11.43;2.03;;;;;;;2.87;53.74;100675.94;4947089;28;20456;-82
2022/02/19 10:23:20;;;;;;;10.85;0.60;;;;;;;2.20;54.77;100682.56;4906109;28;20047;-76
2022/02/19 10:26:34;;;;;;;12.57;1.50;;;;;;;1.77;56.53;100683.75;4973869;28;20468;-80
2022/02/19 10:29:45;;;;;;;7.90;0.70;;;;;;;1.69;55.73;100707.00;4860353;29;20056;-78
2022/02/19 10:32:35;;;;;;;;;;;;;;;;;;;;;
2022/02/19 10:35:55;;;;;;;10.50;0.52;;;;;;;1.35;56.30;100698.56;4969959;28;20039;-81
2022/02/19 10:39:08;;;;;;;13.80;1.00;;;;;;;1.34;57.12;100725.16;4960248;28;20129;-79
2022/02/19 10:42:44;;;;;;;12.40;1.00;;;;;;;2.69;54.88;100708.81;4940575;28;20050;-81
2022/02/19 10:45:37;;;;;;;8.95;0.80;;;;;;;2.89;52.44;100710.31;4998842;28;20037;-82
2022/02/19 10:49:09;;;;;;;9.10;1.10;;;;;;;3.09;51.23;100703.22;4974123;28;20040;-82
2022/02/19 10:51:50;;;;;;;6.20;1.30;;;;;;;3.68;50.80;100716.28;4970285;28;20113;-81
2022/02/19 10:54:45;;;;;;;5.10;1.25;;;;;;;3.59;50.13;100725.00;5007027;28;20034;-79
2022/02/19 10:57:30;;;;;;;10.27;0.70;;;;;;;3.22;51.11;100727.16;4970784;28;20060;-79
2022/02/19 11:04:56;;;;;;;17.33;1.33;;;;;;;4.10;48.55;100736.38;4982940;28;20085;-80
2022/02/19 11:07:43;;;;;;;7.50;0.98;;;;;;;3.90;49.09;100745.25;4960772;28;20274;-79
2022/02/19 11:10:26;;;;;;;7.93;0.90;;;;;;;3.79;48.90;100736.81;4967305;28;20098;-81
2022/02/19 11:13:27;;;;;;;8.55;0.82;;;;;;;4.33;47.68;100748.94;4980484;28;20086;-79
2022/02/19 11:16:29;;;;;;;11.73;1.00;;;;;;;4.02;47.59;100739.91;4981619;28;20045;-78
2022/02/19 11:19:40;;;;;;;9.18;0.88;;;;;;;4.08;47.34;100749.31;4982775;28;20044;-79
2022/02/19 11:22:07;;;;;;;15.10;0.70;;;;;;;2.11;54.38;100784.09;4982678;28;20519;-81
2022/02/19 11:24:36;;;;;;;10.20;0.70;;;;;;;1.92;55.30;100776.44;5000106;28;20045;-80
2022/02/19 11:27:13;;;;;;;10.52;1.00;;;;;;;2.29;55.72;100768.47;4987427;28;20144;-82
2022/02/19 11:29:45;;;;;;;17.48;1.45;;;;;;;1.94;55.42;100773.88;4984382;28;20044;-80
2022/02/19 11:32:16;;;;;;;13.13;1.65;;;;;;;2.73;54.91;100767.28;5002284;28;20162;-81
2022/02/19 11:34:52;;;;;;;15.40;1.52;;;;;;;3.76;52.15;100768.72;5001649;28;20033;-81
2022/02/19 11:37:21;;;;;;;11.90;1.02;;;;;;;3.58;52.84;100764.66;5005806;28;20533;-77
2022/02/19 11:40:02;;;;;;;12.80;1.42;;;;;;;3.62;51.60;100762.03;4992458;28;20045;-80
2022/02/19 11:42:47;;;;;;;23.55;1.30;;;;;;;3.00;50.47;100754.09;4976119;28;20042;-80
2022/02/19 11:45:25;;;;;;;8.13;0.63;;;;;;;3.36;49.57;100769.22;5002762;28;20044;-79
2022/02/19 11:48:14;;;;;;;7.63;0.70;;;;;;;3.72;49.67;100755.88;5014329;28;20072;-81
2022/02/19 11:50:42;;;;;;;11.65;0.82;;;;;;;3.36;49.64;100773.53;4993964;28;20488;-80
2022/02/19 11:53:11;;;;;;;8.05;0.93;;;;;;;3.77;49.12;100778.19;4986233;28;20042;-83
2022/02/19 11:55:40;;;;;;;18.08;0.93;;;;;;;4.00;48.87;100764.09;5004475;28;20792;-81
2022/02/19 11:58:12;;;;;;;12.70;1.15;;;;;;;3.41;49.52;100769.16;4988420;28;20065;-82
2022/02/19 12:00:56;;;;;;;11.73;1.60;;;;;;;3.66;49.85;100764.53;4998566;28;20037;-79
2022/02/19 12:03:30;;;;;;;8.25;0.77;;;;;;;3.87;49.92;100778.91;4997788;28;20038;-80
2022/02/19 12:06:27;;;;;;;20.17;1.45;;;;;;;4.16;47.80;100762.13;4994390;28;20060;-80
2022/02/19 12:09:19;;;;;;;10.90;1.67;;;;;;;4.88;45.42;100780.81;5019939;28;20369;-79
2022/02/19 12:12:05;;;;;;;15.75;2.45;;;;;;;3.73;46.71;100770.50;4974297;28;20040;-79